Terminal Aerodrome Forecast
Issued by NWS

Home | Current Version | Previous Version | Graphics & Text | Print | Product List | Glossary On
Versions: 1 2 3 4 5 6 7 8 9 10 11 12 13 14 15 16
000
FTUS43 KABR 272320
TAFMBG
TAF
KMBG 272320Z 2800/2824 12008KT P6SM BKN060 BKN200
     FM281200 10005KT 5SM BR SCT200
     FM281300 10006KT P6SM SCT200
     FM281700 12010KT P6SM BKN200=

USA.gov is the U.S. government's official web portal to all federal, state and local government web resources and services.